createdAt,value
2022-12-26T00:00:37.532Z,952.84
2022-12-26T00:01:37.420Z,952.84
2022-12-26T00:02:37.468Z,952.85
2022-12-26T00:03:37.675Z,952.85
2022-12-26T00:04:50.679Z,952.85
2022-12-26T00:05:38.418Z,952.90
2022-12-26T00:06:37.398Z,952.87
2022-12-26T00:07:37.377Z,952.87
2022-12-26T00:08:37.395Z,952.88
2022-12-26T00:09:37.379Z,952.83
2022-12-26T00:10:37.390Z,952.83
2022-12-26T00:11:37.368Z,952.76
2022-12-26T00:12:37.367Z,952.79
2022-12-26T00:13:41.302Z,952.79
2022-12-26T00:14:37.361Z,952.70
2022-12-26T00:15:37.380Z,952.75
2022-12-26T00:16:37.419Z,952.77
2022-12-26T00:17:37.358Z,952.71
2022-12-26T00:18:37.348Z,952.76
2022-12-26T00:19:37.351Z,952.74
2022-12-26T00:20:37.357Z,952.75
2022-12-26T00:21:37.351Z,952.71
2022-12-26T00:22:37.338Z,952.72
2022-12-26T00:23:37.391Z,952.62
2022-12-26T00:24:37.319Z,952.62
2022-12-26T00:25:37.331Z,952.62
2022-12-26T00:26:37.323Z,952.68
2022-12-26T00:27:37.321Z,952.63
2022-12-26T00:28:37.319Z,952.64
2022-12-26T00:29:37.302Z,952.62
2022-12-26T00:30:37.308Z,952.62
2022-12-26T00:31:37.290Z,952.66
2022-12-26T00:32:37.272Z,952.55
2022-12-26T00:33:37.256Z,952.53
2022-12-26T00:34:37.233Z,952.55
2022-12-26T00:35:37.222Z,952.54
2022-12-26T00:36:37.215Z,952.52
2022-12-26T00:37:37.208Z,952.53
2022-12-26T00:38:37.196Z,952.56
2022-12-26T00:39:37.180Z,952.51
2022-12-26T00:40:37.163Z,952.49
2022-12-26T00:41:37.187Z,952.51
2022-12-26T00:42:37.153Z,952.48
2022-12-26T00:43:37.134Z,952.47
2022-12-26T00:44:37.126Z,952.53
2022-12-26T00:45:37.110Z,952.54
2022-12-26T00:46:37.127Z,952.58
2022-12-26T00:47:37.112Z,952.60
2022-12-26T00:48:37.065Z,952.56
2022-12-26T00:50:13.728Z,952.61
2022-12-26T00:50:38.027Z,952.54
2022-12-26T00:51:37.028Z,952.53
2022-12-26T00:52:37.029Z,952.59
2022-12-26T00:53:36.998Z,952.63
2022-12-26T00:54:36.965Z,952.62
2022-12-26T00:55:36.947Z,952.53
2022-12-26T00:56:36.927Z,952.53
2022-12-26T00:57:36.907Z,952.50
2022-12-26T00:58:36.917Z,952.52
2022-12-26T00:59:36.851Z,952.58
2022-12-26T01:00:36.853Z,952.57
2022-12-26T01:01:36.906Z,952.59
2022-12-26T01:02:36.922Z,952.54
2022-12-26T01:03:36.781Z,952.54
2022-12-26T01:04:36.748Z,952.53
2022-12-26T01:05:36.710Z,952.52
2022-12-26T01:06:36.699Z,952.53
2022-12-26T01:08:22.442Z,952.55
2022-12-26T01:08:37.649Z,952.52
2022-12-26T01:09:36.611Z,952.53
2022-12-26T01:10:36.579Z,952.46
2022-12-26T01:11:36.574Z,952.46
2022-12-26T01:12:36.513Z,952.40
2022-12-26T01:13:36.502Z,952.38
2022-12-26T01:14:36.471Z,952.36
2022-12-26T01:15:36.436Z,952.33
2022-12-26T01:16:36.418Z,952.36
2022-12-26T01:17:36.364Z,952.40
2022-12-26T01:18:36.371Z,952.41
2022-12-26T01:19:36.317Z,952.38
2022-12-26T01:20:36.275Z,952.37
2022-12-26T01:21:36.234Z,952.39
2022-12-26T01:22:36.195Z,952.41
2022-12-26T01:23:36.168Z,952.49
2022-12-26T01:24:36.143Z,952.45
2022-12-26T01:25:36.105Z,952.41
2022-12-26T01:26:37.057Z,952.47
2022-12-26T01:27:36.024Z,952.53
2022-12-26T01:28:36.002Z,952.51
2022-12-26T01:29:35.974Z,952.55
2022-12-26T01:30:35.937Z,952.55
2022-12-26T01:31:35.927Z,952.55
2022-12-26T01:32:35.858Z,952.53
2022-12-26T01:33:35.834Z,952.67
2022-12-26T01:34:35.785Z,952.65
2022-12-26T01:35:35.767Z,952.71
2022-12-26T01:36:35.749Z,952.72
2022-12-26T01:37:35.695Z,952.72
2022-12-26T01:38:35.649Z,952.70
2022-12-26T01:39:35.630Z,952.71
2022-12-26T01:40:35.625Z,952.68
2022-12-26T01:41:35.587Z,952.65
2022-12-26T01:42:35.545Z,952.61
2022-12-26T01:43:35.488Z,952.58
2022-12-26T01:44:35.461Z,952.59
2022-12-26T01:45:35.494Z,952.54
2022-12-26T01:46:35.419Z,952.53
2022-12-26T01:47:35.370Z,952.57
2022-12-26T01:48:35.343Z,952.62
2022-12-26T01:49:35.300Z,952.61
2022-12-26T01:50:35.266Z,952.63
2022-12-26T01:51:35.249Z,952.63
2022-12-26T01:52:35.197Z,952.64
2022-12-26T01:53:35.162Z,952.64
2022-12-26T01:54:40.857Z,952.67
2022-12-26T01:55:36.102Z,952.70
2022-12-26T01:56:35.072Z,952.72
2022-12-26T01:57:35.095Z,952.68
2022-12-26T01:58:35.017Z,952.79
2022-12-26T01:59:34.984Z,952.71
2022-12-26T02:00:35.063Z,952.63
2022-12-26T02:01:35.016Z,952.65
2022-12-26T02:02:35.082Z,952.70
2022-12-26T02:03:34.880Z,952.73
2022-12-26T02:04:34.833Z,952.71
2022-12-26T02:05:34.871Z,952.67
2022-12-26T02:06:34.800Z,952.57
2022-12-26T02:07:34.769Z,952.60
2022-12-26T02:08:34.745Z,952.55
2022-12-26T02:09:34.718Z,952.56
2022-12-26T02:10:34.699Z,952.51
2022-12-26T02:11:34.690Z,952.51
2022-12-26T02:12:38.493Z,952.40
2022-12-26T02:13:34.635Z,952.40
2022-12-26T02:14:34.586Z,952.38
2022-12-26T02:15:34.568Z,952.41
2022-12-26T02:16:34.600Z,952.45
2022-12-26T02:17:34.515Z,952.48
2022-12-26T02:18:34.477Z,952.48
2022-12-26T02:19:34.444Z,952.54
2022-12-26T02:20:34.394Z,952.50
2022-12-26T02:21:34.363Z,952.41
2022-12-26T02:22:34.337Z,952.44
2022-12-26T02:23:34.297Z,952.48
2022-12-26T02:24:34.275Z,952.49
2022-12-26T02:25:34.260Z,952.56
2022-12-26T02:26:34.215Z,952.55
2022-12-26T02:27:34.176Z,952.53
2022-12-26T02:28:34.161Z,952.54
2022-12-26T02:29:34.136Z,952.49
2022-12-26T02:30:34.104Z,952.46
2022-12-26T02:31:34.093Z,952.48
2022-12-26T02:32:34.037Z,952.53
2022-12-26T02:33:33.996Z,952.57
2022-12-26T02:34:33.986Z,952.63
2022-12-26T02:35:33.927Z,952.60
2022-12-26T02:36:33.909Z,952.63
2022-12-26T02:37:33.881Z,952.64
2022-12-26T02:38:33.849Z,952.59
2022-12-26T02:39:45.016Z,952.63
2022-12-26T02:40:34.796Z,952.59
2022-12-26T02:41:33.739Z,952.57
2022-12-26T02:42:33.710Z,952.48
2022-12-26T02:43:33.688Z,952.49
2022-12-26T02:44:33.653Z,952.42
2022-12-26T02:45:33.668Z,952.43
2022-12-26T02:46:33.635Z,952.35
2022-12-26T02:47:33.572Z,952.31
2022-12-26T02:48:33.529Z,952.27
2022-12-26T02:49:33.489Z,952.29
2022-12-26T02:50:33.482Z,952.30
2022-12-26T02:51:33.421Z,952.24
2022-12-26T02:52:33.412Z,952.26
2022-12-26T02:53:33.387Z,952.21
2022-12-26T02:54:33.352Z,952.21
2022-12-26T02:55:33.345Z,952.20
2022-12-26T02:56:33.304Z,952.15
2022-12-26T02:57:33.279Z,952.12
2022-12-26T02:58:33.244Z,952.16
2022-12-26T02:59:55.842Z,952.19
2022-12-26T03:00:34.200Z,952.27
2022-12-26T03:01:33.243Z,952.31
2022-12-26T03:02:33.285Z,952.38
2022-12-26T03:03:33.141Z,952.43
2022-12-26T03:04:33.082Z,952.39
2022-12-26T03:05:33.060Z,952.38
2022-12-26T03:06:33.048Z,952.40
2022-12-26T03:07:33.010Z,952.44
2022-12-26T03:08:32.995Z,952.47
2022-12-26T03:09:32.936Z,952.47
2022-12-26T03:10:32.915Z,952.42
2022-12-26T03:11:32.894Z,952.43
2022-12-26T03:12:32.864Z,952.44
2022-12-26T03:13:32.817Z,952.47
2022-12-26T03:14:32.830Z,952.46
2022-12-26T03:15:32.756Z,952.37
2022-12-26T03:16:32.783Z,952.33
2022-12-26T03:17:32.687Z,952.30
2022-12-26T03:18:57.705Z,952.19
2022-12-26T03:19:33.635Z,952.16
2022-12-26T03:20:32.590Z,952.16
2022-12-26T03:21:32.606Z,952.16
2022-12-26T03:22:32.547Z,952.22
2022-12-26T03:23:32.495Z,952.22
2022-12-26T03:24:32.479Z,952.22
2022-12-26T03:25:32.442Z,952.22
2022-12-26T03:26:32.410Z,952.23
2022-12-26T03:27:32.382Z,952.25
2022-12-26T03:28:32.352Z,952.27
2022-12-26T03:29:32.311Z,952.38
2022-12-26T03:30:32.368Z,952.36
2022-12-26T03:31:32.240Z,952.45
2022-12-26T03:32:32.201Z,952.52
2022-12-26T03:33:32.182Z,952.57
2022-12-26T03:34:32.140Z,952.59
2022-12-26T03:35:32.100Z,952.59
2022-12-26T03:36:32.053Z,952.63
2022-12-26T03:37:49.623Z,952.66
2022-12-26T03:38:33.020Z,952.62
2022-12-26T03:39:31.949Z,952.56
2022-12-26T03:40:31.903Z,952.53
2022-12-26T03:41:31.866Z,952.50
2022-12-26T03:42:31.833Z,952.56
2022-12-26T03:43:31.810Z,952.53
2022-12-26T03:44:31.783Z,952.55
2022-12-26T03:45:31.725Z,952.61
2022-12-26T03:46:31.715Z,952.67
2022-12-26T03:47:31.668Z,952.66
2022-12-26T03:48:31.636Z,952.72
2022-12-26T03:49:31.587Z,952.72
2022-12-26T03:50:31.555Z,952.72
2022-12-26T03:51:31.515Z,952.69
2022-12-26T03:52:31.476Z,952.77
2022-12-26T03:53:31.436Z,952.76
2022-12-26T03:54:31.416Z,952.81
2022-12-26T03:55:31.384Z,952.81
2022-12-26T03:56:32.850Z,952.84
2022-12-26T03:57:31.296Z,952.81
2022-12-26T03:58:31.247Z,952.73
2022-12-26T03:59:31.308Z,952.76
2022-12-26T04:00:31.158Z,952.75
2022-12-26T04:01:31.238Z,952.78
2022-12-26T04:02:31.291Z,952.84
2022-12-26T04:03:31.075Z,952.82
2022-12-26T04:04:31.028Z,952.77
2022-12-26T04:05:30.984Z,952.72
2022-12-26T04:06:30.939Z,952.72
2022-12-26T04:07:30.904Z,952.74
2022-12-26T04:08:30.886Z,952.78
2022-12-26T04:09:30.862Z,952.82
2022-12-26T04:10:30.821Z,952.81
2022-12-26T04:11:30.770Z,952.83
2022-12-26T04:12:30.738Z,952.89
2022-12-26T04:13:30.700Z,952.87
2022-12-26T04:14:30.663Z,952.87
2022-12-26T04:15:30.699Z,952.91
2022-12-26T04:16:30.591Z,952.79
2022-12-26T04:17:30.560Z,952.88
2022-12-26T04:18:30.527Z,952.82
2022-12-26T04:19:30.492Z,952.79
2022-12-26T04:20:30.472Z,952.73
2022-12-26T04:21:30.436Z,952.73
2022-12-26T04:22:30.381Z,952.80
2022-12-26T04:23:30.353Z,952.80
2022-12-26T04:24:30.325Z,952.86
2022-12-26T04:25:50.816Z,952.84
2022-12-26T04:26:31.252Z,952.86
2022-12-26T04:27:30.204Z,952.89
2022-12-26T04:28:30.159Z,952.84
2022-12-26T04:29:30.131Z,952.83
2022-12-26T04:30:30.179Z,952.84
2022-12-26T04:31:30.129Z,952.78
2022-12-26T04:32:30.029Z,952.86
2022-12-26T04:33:29.978Z,952.89
2022-12-26T04:34:29.948Z,952.89
2022-12-26T04:35:29.896Z,952.84
2022-12-26T04:36:29.876Z,952.87
2022-12-26T04:37:29.835Z,952.90
2022-12-26T04:38:29.795Z,952.85
2022-12-26T04:39:29.776Z,952.81
2022-12-26T04:40:29.717Z,952.88
2022-12-26T04:41:29.685Z,952.85
2022-12-26T04:42:29.628Z,952.84
2022-12-26T04:43:48.112Z,952.77
2022-12-26T04:44:30.547Z,952.72
2022-12-26T04:45:29.518Z,952.77
2022-12-26T04:46:29.524Z,952.83
2022-12-26T04:47:29.449Z,952.89
2022-12-26T04:48:29.420Z,952.90
2022-12-26T04:49:29.369Z,952.85
2022-12-26T04:50:29.324Z,952.92
2022-12-26T04:51:29.303Z,952.92
2022-12-26T04:52:29.270Z,953.00
2022-12-26T04:53:29.230Z,952.94
2022-12-26T04:54:29.208Z,952.89
2022-12-26T04:55:29.171Z,952.81
2022-12-26T04:56:29.153Z,952.74
2022-12-26T04:57:29.144Z,952.80
2022-12-26T04:58:29.078Z,952.73
2022-12-26T04:59:29.048Z,952.75
2022-12-26T05:00:29.028Z,952.78
2022-12-26T05:01:29.057Z,952.74
2022-12-26T05:02:29.133Z,952.79
2022-12-26T05:03:28.955Z,952.88
2022-12-26T05:04:28.860Z,952.95
2022-12-26T05:05:28.837Z,952.98
2022-12-26T05:06:28.794Z,952.94
2022-12-26T05:07:28.780Z,952.92
2022-12-26T05:08:28.723Z,952.90
2022-12-26T05:09:28.702Z,952.83
2022-12-26T05:10:28.660Z,952.88
2022-12-26T05:11:28.624Z,952.82
2022-12-26T05:12:28.612Z,952.79
2022-12-26T05:13:28.544Z,952.77
2022-12-26T05:14:28.515Z,952.71
2022-12-26T05:15:28.485Z,952.76
2022-12-26T05:16:28.499Z,952.77
2022-12-26T05:17:28.425Z,952.75
2022-12-26T05:18:28.396Z,952.79
2022-12-26T05:19:28.364Z,952.81
2022-12-26T05:20:28.336Z,952.84
2022-12-26T05:21:28.296Z,952.93
2022-12-26T05:22:28.259Z,953.02
2022-12-26T05:23:28.241Z,953.02
2022-12-26T05:24:28.221Z,952.99
2022-12-26T05:25:28.156Z,952.91
2022-12-26T05:26:28.124Z,952.91
2022-12-26T05:27:28.098Z,952.92
2022-12-26T05:28:28.064Z,952.91
2022-12-26T05:29:28.026Z,952.90
2022-12-26T05:30:27.997Z,952.84
2022-12-26T05:31:34.680Z,952.79
2022-12-26T05:32:28.917Z,952.73
2022-12-26T05:33:27.882Z,952.78
2022-12-26T05:34:27.866Z,952.70
2022-12-26T05:35:27.809Z,952.71
2022-12-26T05:36:27.766Z,952.72
2022-12-26T05:37:27.739Z,952.70
2022-12-26T05:38:27.689Z,952.64
2022-12-26T05:39:27.683Z,952.55
2022-12-26T05:40:27.626Z,952.57
2022-12-26T05:41:27.588Z,952.61
2022-12-26T05:42:27.541Z,952.69
2022-12-26T05:43:27.515Z,952.69
2022-12-26T05:44:27.482Z,952.72
2022-12-26T05:45:27.437Z,952.72
2022-12-26T05:46:27.452Z,952.70
2022-12-26T05:47:27.351Z,952.77
2022-12-26T05:48:27.291Z,952.77
2022-12-26T05:49:27.274Z,952.83
2022-12-26T05:50:27.220Z,952.80
2022-12-26T05:51:27.174Z,952.82
2022-12-26T05:52:27.121Z,952.83
2022-12-26T05:53:27.080Z,952.78
2022-12-26T05:54:27.021Z,952.76
2022-12-26T05:55:26.991Z,952.79
2022-12-26T05:56:26.923Z,952.77
2022-12-26T05:57:26.897Z,952.77
2022-12-26T05:58:26.832Z,952.75
2022-12-26T05:59:26.803Z,952.83
2022-12-26T06:00:26.775Z,952.87
2022-12-26T06:01:26.740Z,952.88
2022-12-26T06:02:26.700Z,952.89
2022-12-26T06:03:26.721Z,952.84
2022-12-26T06:04:26.565Z,952.76
2022-12-26T06:05:26.525Z,952.78
2022-12-26T06:06:26.479Z,952.77
2022-12-26T06:07:26.426Z,952.82
2022-12-26T06:08:26.366Z,952.81
2022-12-26T06:09:26.326Z,952.81
2022-12-26T06:10:26.308Z,952.84
2022-12-26T06:11:26.242Z,952.70
2022-12-26T06:12:26.195Z,952.75
2022-12-26T06:13:26.147Z,952.73
2022-12-26T06:14:26.105Z,952.77
2022-12-26T06:15:26.062Z,952.77
2022-12-26T06:16:26.129Z,952.78
2022-12-26T06:17:25.988Z,952.76
2022-12-26T06:18:25.930Z,952.69
2022-12-26T06:19:25.889Z,952.65
2022-12-26T06:20:25.839Z,952.72
2022-12-26T06:21:25.822Z,952.69
2022-12-26T06:22:25.765Z,952.70
2022-12-26T06:23:25.708Z,952.68
2022-12-26T06:24:25.662Z,952.67
2022-12-26T06:25:25.623Z,952.64
2022-12-26T06:26:25.595Z,952.63
2022-12-26T06:27:25.539Z,952.61
2022-12-26T06:28:25.483Z,952.58
2022-12-26T06:29:25.443Z,952.60
2022-12-26T06:30:25.403Z,952.61
2022-12-26T06:31:25.423Z,952.60
2022-12-26T06:32:25.317Z,952.64
2022-12-26T06:33:25.253Z,952.64
2022-12-26T06:34:25.203Z,952.71
2022-12-26T06:35:25.161Z,952.71
2022-12-26T06:36:25.113Z,952.71
2022-12-26T06:37:25.107Z,952.71
2022-12-26T06:38:25.025Z,952.71
2022-12-26T06:39:24.997Z,952.67
2022-12-26T06:40:24.936Z,952.67
2022-12-26T06:41:24.897Z,952.69
2022-12-26T06:42:24.837Z,952.71
2022-12-26T06:43:24.807Z,952.70
2022-12-26T06:44:24.735Z,952.67
2022-12-26T06:45:24.698Z,952.71
2022-12-26T06:46:24.690Z,952.70
2022-12-26T06:47:24.616Z,952.71
2022-12-26T06:48:24.586Z,952.71
2022-12-26T06:49:30.414Z,952.66
2022-12-26T06:50:25.501Z,952.67
2022-12-26T06:51:24.444Z,952.67
2022-12-26T06:52:24.446Z,952.65
2022-12-26T06:53:24.386Z,952.70
2022-12-26T06:54:24.348Z,952.66
2022-12-26T06:55:24.308Z,952.69
2022-12-26T06:56:24.237Z,952.66
2022-12-26T06:57:24.216Z,952.70
2022-12-26T06:58:24.149Z,952.63
2022-12-26T06:59:24.138Z,952.64
2022-12-26T07:00:24.082Z,952.60
2022-12-26T07:01:24.171Z,952.59
2022-12-26T07:02:24.182Z,952.58
2022-12-26T07:03:23.981Z,952.62
2022-12-26T07:04:23.957Z,952.63
2022-12-26T07:05:23.911Z,952.62
2022-12-26T07:06:23.908Z,952.63
2022-12-26T07:07:23.832Z,952.59
2022-12-26T07:08:23.798Z,952.64
2022-12-26T07:09:27.130Z,952.64
2022-12-26T07:10:24.728Z,952.59
2022-12-26T07:11:23.695Z,952.60
2022-12-26T07:12:23.659Z,952.48
2022-12-26T07:13:23.641Z,952.54
2022-12-26T07:14:23.581Z,952.53
2022-12-26T07:15:23.563Z,952.51
2022-12-26T07:16:23.596Z,952.46
2022-12-26T07:17:23.474Z,952.55
2022-12-26T07:18:23.449Z,952.56
2022-12-26T07:19:23.414Z,952.58
2022-12-26T07:20:23.393Z,952.66
2022-12-26T07:21:23.369Z,952.69
2022-12-26T07:22:23.317Z,952.67
2022-12-26T07:23:23.282Z,952.62
2022-12-26T07:24:23.272Z,952.67
2022-12-26T07:25:23.233Z,952.68
2022-12-26T07:26:23.188Z,952.73
2022-12-26T07:27:23.153Z,952.76
2022-12-26T07:28:23.115Z,952.77
2022-12-26T07:29:23.085Z,952.86
2022-12-26T07:30:23.046Z,952.82
2022-12-26T07:31:23.080Z,952.84
2022-12-26T07:32:22.979Z,952.84
2022-12-26T07:33:22.992Z,952.95
2022-12-26T07:34:27.889Z,952.86
2022-12-26T07:35:23.868Z,952.88
2022-12-26T07:36:22.836Z,952.84
2022-12-26T07:37:22.793Z,952.81
2022-12-26T07:38:22.753Z,952.85
2022-12-26T07:39:22.700Z,952.86
2022-12-26T07:40:22.681Z,952.86
2022-12-26T07:41:22.608Z,952.88
2022-12-26T07:42:22.559Z,952.90
2022-12-26T07:43:22.518Z,952.88
2022-12-26T07:44:22.486Z,952.94
2022-12-26T07:45:22.441Z,952.96
2022-12-26T07:46:22.462Z,952.87
2022-12-26T07:47:22.367Z,952.86
2022-12-26T07:48:22.318Z,952.89
2022-12-26T07:49:22.269Z,952.95
2022-12-26T07:50:22.219Z,952.98
2022-12-26T07:51:22.202Z,953.02
2022-12-26T07:52:22.129Z,953.01
2022-12-26T07:53:22.104Z,953.06
2022-12-26T07:54:22.042Z,953.00
2022-12-26T07:55:22.001Z,953.04
2022-12-26T07:56:21.970Z,953.01
2022-12-26T07:57:47.540Z,953.02
2022-12-26T07:58:22.862Z,952.99
2022-12-26T07:59:21.837Z,952.96
2022-12-26T08:00:21.764Z,952.96
2022-12-26T08:01:21.866Z,952.95
2022-12-26T08:02:21.928Z,952.97
2022-12-26T08:03:21.794Z,953.01
2022-12-26T08:04:21.593Z,952.96
2022-12-26T08:05:21.552Z,953.02
2022-12-26T08:06:21.492Z,953.14
2022-12-26T08:07:21.465Z,953.14
2022-12-26T08:08:21.397Z,953.15
2022-12-26T08:09:21.356Z,953.14
2022-12-26T08:10:21.357Z,953.10
2022-12-26T08:11:21.250Z,953.11
2022-12-26T08:12:21.199Z,953.14
2022-12-26T08:13:21.156Z,953.14
2022-12-26T08:14:21.108Z,953.14
2022-12-26T08:15:21.056Z,953.12
2022-12-26T08:16:21.026Z,953.10
2022-12-26T08:17:21.044Z,953.04
2022-12-26T08:18:20.917Z,953.00
2022-12-26T08:19:20.871Z,952.97
2022-12-26T08:20:20.829Z,953.06
2022-12-26T08:21:20.771Z,953.13
2022-12-26T08:22:20.712Z,953.18
2022-12-26T08:23:20.660Z,953.24
2022-12-26T08:24:20.639Z,953.15
2022-12-26T08:25:22.018Z,953.13
2022-12-26T08:26:20.611Z,953.12
2022-12-26T08:27:20.477Z,953.11
2022-12-26T08:28:20.440Z,953.19
2022-12-26T08:29:20.401Z,953.22
2022-12-26T08:30:20.340Z,953.17
2022-12-26T08:31:20.330Z,953.13
2022-12-26T08:32:20.252Z,953.10
2022-12-26T08:33:20.192Z,953.10
2022-12-26T08:34:20.151Z,953.17
2022-12-26T08:35:20.097Z,953.23
2022-12-26T08:36:20.041Z,953.18
2022-12-26T08:37:20.018Z,953.25
2022-12-26T08:38:19.953Z,953.18
2022-12-26T08:39:19.894Z,953.12
2022-12-26T08:40:41.447Z,953.10
2022-12-26T08:41:20.786Z,953.07
2022-12-26T08:42:19.743Z,953.10
2022-12-26T08:43:34.817Z,953.15
2022-12-26T08:44:28.682Z,953.16
2022-12-26T08:45:20.595Z,953.17
2022-12-26T08:46:19.600Z,953.17
2022-12-26T08:47:19.488Z,953.14
2022-12-26T08:48:19.431Z,953.10
2022-12-26T08:49:19.375Z,953.07
2022-12-26T08:50:19.355Z,953.11
2022-12-26T08:51:19.285Z,953.16
2022-12-26T08:52:19.245Z,953.13
2022-12-26T08:53:19.184Z,953.13
2022-12-26T08:54:19.138Z,953.11
2022-12-26T08:55:19.077Z,953.05
2022-12-26T08:56:19.057Z,953.06
2022-12-26T08:57:18.993Z,953.07
2022-12-26T08:58:18.973Z,953.08
2022-12-26T08:59:18.905Z,953.08
2022-12-26T09:00:18.828Z,953.13
2022-12-26T09:01:18.845Z,953.11
2022-12-26T09:02:18.887Z,953.11
2022-12-26T09:03:18.691Z,953.11
2022-12-26T09:04:18.643Z,953.04
2022-12-26T09:05:18.594Z,953.07
2022-12-26T09:06:18.549Z,953.09
2022-12-26T09:07:18.479Z,953.14
2022-12-26T09:08:18.439Z,953.14
2022-12-26T09:09:18.390Z,953.23
2022-12-26T09:10:18.330Z,953.25
2022-12-26T09:11:18.282Z,953.23
2022-12-26T09:12:18.241Z,953.27
2022-12-26T09:13:18.172Z,953.29
2022-12-26T09:14:18.132Z,953.20
2022-12-26T09:15:18.080Z,953.19
2022-12-26T09:16:18.124Z,953.19
2022-12-26T09:17:18.069Z,953.10
2022-12-26T09:18:17.929Z,953.12
2022-12-26T09:19:17.887Z,953.20
2022-12-26T09:20:17.824Z,953.17
2022-12-26T09:21:17.772Z,953.19
2022-12-26T09:22:17.743Z,953.22
2022-12-26T09:23:17.685Z,953.27
2022-12-26T09:24:17.667Z,953.27
2022-12-26T09:25:17.567Z,953.33
2022-12-26T09:26:17.535Z,953.36
2022-12-26T09:27:17.495Z,953.35
2022-12-26T09:28:17.437Z,953.31
2022-12-26T09:29:17.377Z,953.30
2022-12-26T09:30:17.327Z,953.27
2022-12-26T09:31:17.382Z,953.23
2022-12-26T09:32:17.218Z,953.33
2022-12-26T09:33:17.167Z,953.26
2022-12-26T09:34:17.107Z,953.21
2022-12-26T09:35:17.058Z,953.23
2022-12-26T09:36:16.977Z,953.23
2022-12-26T09:37:16.921Z,953.28
2022-12-26T09:38:16.891Z,953.26
2022-12-26T09:39:16.809Z,953.32
2022-12-26T09:40:16.767Z,953.34
2022-12-26T09:41:16.718Z,953.32
2022-12-26T09:42:16.651Z,953.33
2022-12-26T09:43:16.615Z,953.35
2022-12-26T09:44:16.550Z,953.36
2022-12-26T09:45:16.503Z,953.30
2022-12-26T09:46:16.479Z,953.27
2022-12-26T09:47:16.385Z,953.27
2022-12-26T09:48:16.340Z,953.21
2022-12-26T09:49:16.300Z,953.22
2022-12-26T09:50:16.243Z,953.17
2022-12-26T09:51:16.165Z,953.13
2022-12-26T09:52:16.138Z,953.13
2022-12-26T09:53:16.080Z,953.19
2022-12-26T09:54:16.032Z,953.17
2022-12-26T09:55:15.979Z,953.18
2022-12-26T09:56:37.017Z,953.22
2022-12-26T09:57:16.862Z,953.19
2022-12-26T09:58:15.838Z,953.26
2022-12-26T09:59:15.790Z,953.23
2022-12-26T10:00:15.715Z,953.29
2022-12-26T10:01:15.725Z,953.21
2022-12-26T10:02:15.723Z,953.20
2022-12-26T10:03:15.554Z,953.24
2022-12-26T10:04:15.582Z,953.22
2022-12-26T10:05:15.473Z,953.19
2022-12-26T10:06:15.406Z,953.25
2022-12-26T10:07:15.353Z,953.24
2022-12-26T10:08:15.294Z,953.25
2022-12-26T10:09:15.253Z,953.24
2022-12-26T10:10:15.215Z,953.26
2022-12-26T10:11:15.135Z,953.31
2022-12-26T10:12:15.083Z,953.22
2022-12-26T10:13:15.019Z,953.24
2022-12-26T10:14:19.784Z,953.24
2022-12-26T10:15:15.929Z,953.20
2022-12-26T10:16:14.889Z,953.18
2022-12-26T10:17:14.807Z,953.19
2022-12-26T10:18:14.761Z,953.27
2022-12-26T10:19:14.714Z,953.15
2022-12-26T10:20:14.675Z,953.15
2022-12-26T10:21:14.609Z,953.18
2022-12-26T10:22:14.569Z,953.25
2022-12-26T10:23:14.513Z,953.20
2022-12-26T10:24:14.480Z,953.20
2022-12-26T10:25:14.416Z,953.20
2022-12-26T10:26:14.368Z,953.22
2022-12-26T10:27:14.320Z,953.20
2022-12-26T10:28:14.281Z,953.18
2022-12-26T10:29:14.218Z,953.24
2022-12-26T10:30:14.197Z,953.14
2022-12-26T10:31:14.184Z,953.22
2022-12-26T10:32:14.080Z,953.20
2022-12-26T10:33:14.012Z,953.19
2022-12-26T10:34:13.963Z,953.32
2022-12-26T10:35:13.912Z,953.39
2022-12-26T10:36:13.883Z,953.41
2022-12-26T10:37:13.816Z,953.38
2022-12-26T10:38:13.764Z,953.39
2022-12-26T10:39:13.720Z,953.44
2022-12-26T10:40:13.665Z,953.47
2022-12-26T10:41:13.627Z,953.47
2022-12-26T10:42:13.583Z,953.42
2022-12-26T10:43:13.516Z,953.41
2022-12-26T10:44:13.463Z,953.39
2022-12-26T10:45:13.415Z,953.40
2022-12-26T10:46:13.545Z,953.28
2022-12-26T10:47:13.320Z,953.38
2022-12-26T10:48:13.269Z,953.43
2022-12-26T10:49:13.226Z,953.39
2022-12-26T10:50:13.167Z,953.42
2022-12-26T10:51:13.104Z,953.40
2022-12-26T10:52:13.070Z,953.46
2022-12-26T10:53:13.006Z,953.46
2022-12-26T10:54:12.967Z,953.47
2022-12-26T10:55:29.398Z,953.42
2022-12-26T10:56:18.068Z,953.42
2022-12-26T10:57:12.826Z,953.34
2022-12-26T10:58:12.794Z,953.41
2022-12-26T10:59:12.727Z,953.32
2022-12-26T11:00:12.691Z,953.41
2022-12-26T11:01:12.696Z,953.39
2022-12-26T11:02:12.648Z,953.44
2022-12-26T11:03:12.660Z,953.46
2022-12-26T11:04:12.503Z,953.40
2022-12-26T11:05:22.147Z,953.40
2022-12-26T11:06:13.440Z,953.35
2022-12-26T11:07:12.331Z,953.35
2022-12-26T11:08:12.263Z,953.39
2022-12-26T11:09:12.211Z,953.44
2022-12-26T11:10:12.169Z,953.41
2022-12-26T11:11:12.110Z,953.41
2022-12-26T11:12:12.062Z,953.40
2022-12-26T11:13:12.030Z,953.40
2022-12-26T11:14:11.963Z,953.31
2022-12-26T11:15:11.903Z,953.34
2022-12-26T11:16:11.923Z,953.35
2022-12-26T11:17:11.799Z,953.32
2022-12-26T11:18:11.787Z,953.32
2022-12-26T11:19:11.675Z,953.34
2022-12-26T11:20:11.629Z,953.32
2022-12-26T11:21:12.935Z,953.32
2022-12-26T11:22:11.517Z,953.43
2022-12-26T11:23:11.473Z,953.33
2022-12-26T11:24:11.408Z,953.32
2022-12-26T11:25:11.358Z,953.38
2022-12-26T11:26:11.307Z,953.35
2022-12-26T11:27:12.804Z,953.38
2022-12-26T11:28:11.207Z,953.37
2022-12-26T11:29:11.127Z,953.44
2022-12-26T11:30:11.118Z,953.45
2022-12-26T11:31:11.044Z,953.37
2022-12-26T11:32:10.960Z,953.24
2022-12-26T11:33:14.460Z,953.23
2022-12-26T11:34:10.878Z,953.20
2022-12-26T11:35:10.808Z,953.19
2022-12-26T11:36:10.769Z,953.20
2022-12-26T11:37:10.700Z,953.23
2022-12-26T11:38:10.652Z,953.29
2022-12-26T11:39:10.609Z,953.23
2022-12-26T11:40:10.539Z,953.16
2022-12-26T11:41:10.481Z,953.24
2022-12-26T11:42:10.448Z,953.21
2022-12-26T11:43:10.393Z,953.19
2022-12-26T11:44:10.352Z,953.17
2022-12-26T11:45:10.295Z,953.16
2022-12-26T11:46:10.255Z,953.24
2022-12-26T11:47:10.169Z,953.21
2022-12-26T11:48:10.132Z,953.25
2022-12-26T11:49:10.092Z,953.22
2022-12-26T11:50:10.064Z,953.20
2022-12-26T11:51:09.954Z,953.22
2022-12-26T11:52:09.915Z,953.22
2022-12-26T11:53:09.864Z,953.15
2022-12-26T11:54:09.814Z,953.12
2022-12-26T11:55:09.764Z,953.18
2022-12-26T11:56:09.722Z,953.17
2022-12-26T11:57:09.656Z,953.18
2022-12-26T11:58:09.689Z,953.18
2022-12-26T11:59:09.555Z,953.18
2022-12-26T12:00:09.515Z,953.18
2022-12-26T12:01:09.478Z,953.14
2022-12-26T12:02:09.426Z,953.18
2022-12-26T12:03:09.361Z,953.23
2022-12-26T12:04:09.295Z,953.19
2022-12-26T12:05:09.254Z,953.22
2022-12-26T12:06:09.190Z,953.14
2022-12-26T12:07:09.127Z,953.16
2022-12-26T12:08:09.067Z,953.10
2022-12-26T12:09:09.008Z,953.05
2022-12-26T12:10:08.998Z,953.01
2022-12-26T12:11:08.908Z,953.02
2022-12-26T12:12:08.859Z,953.07
2022-12-26T12:13:08.809Z,953.07
2022-12-26T12:14:08.752Z,952.99
2022-12-26T12:15:08.698Z,953.10
2022-12-26T12:16:08.705Z,953.18
2022-12-26T12:17:08.603Z,953.15
2022-12-26T12:18:08.585Z,953.15
2022-12-26T12:19:08.509Z,953.30
2022-12-26T12:20:08.465Z,953.25
2022-12-26T12:21:08.430Z,953.17
2022-12-26T12:22:08.378Z,953.16
2022-12-26T12:23:08.313Z,953.24
2022-12-26T12:24:08.271Z,953.16
2022-12-26T12:25:08.221Z,953.20
2022-12-26T12:26:08.170Z,953.11
2022-12-26T12:27:08.133Z,953.11
2022-12-26T12:28:08.063Z,953.14